Time,TemperatureF,DewpointF,PressureIn,WindDirection,WindDirectionDegrees,WindSpeedMPH,WindSpeedGustMPH,Humidity,HourlyPrecipIn,Conditions,Clouds,dailyrainin,SoftwareType,DateUTC
2013-02-03 00:00:00,24.8,16.8,23.45,West,270,0.0,1.1,71,0.00,,,0.00,WUHU216HW,2013-02-03 07:00:00,
2013-02-03 00:05:00,24.8,16.4,23.45,West,270,0.0,0.9,70,0.00,,,0.00,WUHU216HW,2013-02-03 07:05:00,
2013-02-03 00:10:00,24.8,16.4,23.45,West,270,0.2,0.4,70,0.00,,,0.00,WUHU216HW,2013-02-03 07:10:00,
2013-02-03 00:15:00,24.7,16.2,23.45,West,270,0.7,0.7,70,0.00,,,0.00,WUHU216HW,2013-02-03 07:15:00,
2013-02-03 00:20:00,24.7,16.2,23.45,WSW,248,1.1,1.1,70,0.00,,,0.00,WUHU216HW,2013-02-03 07:20:00,
2013-02-03 00:25:00,24.5,16.0,23.45,WSW,248,0.0,1.1,70,0.00,,,0.00,WUHU216HW,2013-02-03 07:25:00,
2013-02-03 00:30:00,24.5,16.0,23.45,WSW,248,0.4,1.1,70,0.00,,,0.00,WUHU216HW,2013-02-03 07:30:00,
2013-02-03 00:35:00,24.3,15.9,23.45,WSW,248,0.9,1.1,70,0.00,,,0.00,WUHU216HW,2013-02-03 07:35:00,
2013-02-03 00:40:00,24.3,15.9,23.44,WSW,248,1.3,1.3,70,0.00,,,0.00,WUHU216HW,2013-02-03 07:40:00,
2013-02-03 00:45:00,24.1,15.8,23.44,WSW,248,0.0,1.3,70,0.00,,,0.00,WUHU216HW,2013-02-03 07:45:00,
2013-02-03 00:50:00,24.1,16.0,23.44,WSW,248,0.9,1.3,71,0.00,,,0.00,WUHU216HW,2013-02-03 07:50:00,
2013-02-03 00:55:00,24.1,15.8,23.44,WSW,248,1.3,1.3,70,0.00,,,0.00,WUHU216HW,2013-02-03 07:55:00,
2013-02-03 01:00:00,24.1,16.0,23.44,WSW,248,0.9,1.3,71,0.00,,,0.00,WUHU216HW,2013-02-03 08:00:00,
2013-02-03 01:05:00,24.1,16.0,23.43,WSW,248,0.7,1.3,71,0.00,,,0.00,WUHU216HW,2013-02-03 08:05:00,
2013-02-03 01:11:00,24.1,15.8,23.43,WSW,248,0.4,1.1,70,0.00,,,0.00,WUHU216HW,2013-02-03 08:11:00,
2013-02-03 01:16:00,24.1,15.8,23.43,WSW,248,1.1,1.1,70,0.00,,,0.00,WUHU216HW,2013-02-03 08:16:00,
2013-02-03 01:21:00,24.1,15.8,23.43,WSW,248,0.9,1.1,70,0.00,,,0.00,WUHU216HW,2013-02-03 08:21:00,
2013-02-03 01:26:00,23.9,15.6,23.43,WSW,248,0.7,1.1,70,0.00,,,0.00,WUHU216HW,2013-02-03 08:26:00,
2013-02-03 01:31:00,23.9,15.9,23.43,WSW,248,0.7,1.1,71,0.00,,,0.00,WUHU216HW,2013-02-03 08:31:00,
2013-02-03 01:36:00,23.8,15.4,23.42,WSW,248,0.0,1.1,70,0.00,,,0.00,WUHU216HW,2013-02-03 08:36:00,
2013-02-03 01:41:00,23.9,15.6,23.42,WSW,248,0.4,0.9,70,0.00,,,0.00,WUHU216HW,2013-02-03 08:41:00,
2013-02-03 01:46:00,24.1,15.8,23.42,WSW,248,0.0,0.4,70,0.00,,,0.00,WUHU216HW,2013-02-03 08:46:00,
2013-02-03 01:51:00,24.1,15.8,23.42,WSW,248,0.7,1.3,70,0.00,,,0.00,WUHU216HW,2013-02-03 08:51:00,
2013-02-03 01:56:00,23.9,15.6,23.42,WSW,248,0.4,1.3,70,0.00,,,0.00,WUHU216HW,2013-02-03 08:56:00,
2013-02-03 02:01:00,23.8,15.4,23.42,WSW,248,0.9,1.1,70,0.00,,,0.00,WUHU216HW,2013-02-03 09:01:00,
2013-02-03 02:06:00,23.9,15.6,23.42,WSW,248,0.4,1.1,70,0.00,,,0.00,WUHU216HW,2013-02-03 09:06:00,
2013-02-03 02:12:00,23.9,15.6,23.42,WSW,248,0.4,1.1,70,0.00,,,0.00,WUHU216HW,2013-02-03 09:12:00,
2013-02-03 02:17:00,23.9,15.6,23.42,WSW,248,0.4,0.9,70,0.00,,,0.00,WUHU216HW,2013-02-03 09:17:00,
2013-02-03 02:22:00,23.9,15.6,23.41,WSW,248,1.3,1.3,70,0.00,,,0.00,WUHU216HW,2013-02-03 09:22:00,
2013-02-03 02:27:00,23.9,15.6,23.41,WSW,248,0.2,1.3,70,0.00,,,0.00,WUHU216HW,2013-02-03 09:27:00,
2013-02-03 02:32:00,23.9,15.6,23.41,WSW,248,0.7,0.9,70,0.00,,,0.00,WUHU216HW,2013-02-03 09:32:00,
2013-02-03 02:37:00,23.9,15.6,23.41,WSW,248,0.4,0.9,70,0.00,,,0.00,WUHU216HW,2013-02-03 09:37:00,
2013-02-03 02:42:00,23.9,15.2,23.41,WSW,248,0.0,0.9,69,0.00,,,0.00,WUHU216HW,2013-02-03 09:42:00,
2013-02-03 02:47:00,23.9,15.6,23.41,WSW,248,0.7,0.7,70,0.00,,,0.00,WUHU216HW,2013-02-03 09:47:00,
2013-02-03 02:52:00,23.9,15.6,23.40,WSW,248,0.4,1.1,70,0.00,,,0.00,WUHU216HW,2013-02-03 09:52:00,
2013-02-03 02:57:00,23.8,15.4,23.40,WSW,248,1.1,1.1,70,0.00,,,0.00,WUHU216HW,2013-02-03 09:57:00,
2013-02-03 03:02:00,23.8,15.4,23.40,WSW,248,1.1,1.1,70,0.00,,,0.00,WUHU216HW,2013-02-03 10:02:00,
2013-02-03 03:07:00,23.6,15.2,23.40,WSW,248,1.1,1.1,70,0.00,,,0.00,WUHU216HW,2013-02-03 10:07:00,
2013-02-03 03:12:00,23.4,15.1,23.40,WSW,248,1.1,1.1,70,0.00,,,0.00,WUHU216HW,2013-02-03 10:12:00,
2013-02-03 03:18:00,23.4,15.1,23.40,WSW,248,1.1,1.1,70,0.00,,,0.00,WUHU216HW,2013-02-03 10:18:00,
2013-02-03 03:23:00,23.4,15.1,23.40,WSW,248,1.1,1.1,70,0.00,,,0.00,WUHU216HW,2013-02-03 10:23:00,
2013-02-03 03:28:00,23.4,14.8,23.39,WSW,248,1.6,1.6,69,0.00,,,0.00,WUHU216HW,2013-02-03 10:28:00,
2013-02-03 03:33:00,23.6,14.9,23.39,WSW,248,0.4,1.6,69,0.00,,,0.00,WUHU216HW,2013-02-03 10:33:00,
2013-02-03 03:38:00,23.6,14.9,23.39,WSW,248,1.3,1.3,69,0.00,,,0.00,WUHU216HW,2013-02-03 10:38:00,
2013-02-03 03:43:00,23.8,15.0,23.39,WSW,248,0.9,1.3,69,0.00,,,0.00,WUHU216HW,2013-02-03 10:43:00,
2013-02-03 03:48:00,23.8,15.0,23.39,WSW,248,0.9,1.3,69,0.00,,,0.00,WUHU216HW,2013-02-03 10:48:00,
2013-02-03 03:55:00,23.8,15.0,23.39,WSW,248,1.1,1.1,69,0.00,,,0.00,WUHU216HW,2013-02-03 10:55:00,
2013-02-03 04:00:00,23.8,15.0,23.39,WSW,248,1.1,1.3,69,0.00,,,0.00,WUHU216HW,2013-02-03 11:00:00,
2013-02-03 04:05:00,23.8,15.0,23.38,WSW,248,1.1,1.6,69,0.00,,,0.00,WUHU216HW,2013-02-03 11:05:00,
2013-02-03 04:10:00,23.8,15.0,23.39,WSW,248,1.1,1.6,69,0.00,,,0.00,WUHU216HW,2013-02-03 11:10:00,
2013-02-03 04:15:00,23.9,15.2,23.39,WSW,248,0.7,1.6,69,0.00,,,0.00,WUHU216HW,2013-02-03 11:15:00,
2013-02-03 04:20:00,23.9,15.2,23.38,WSW,248,1.3,1.3,69,0.00,,,0.00,WUHU216HW,2013-02-03 11:20:00,
2013-02-03 04:25:00,24.1,15.4,23.38,West,270,1.1,1.3,69,0.00,,,0.00,WUHU216HW,2013-02-03 11:25:00,
2013-02-03 04:30:00,24.1,15.4,23.38,WSW,248,1.1,1.1,69,0.00,,,0.00,WUHU216HW,2013-02-03 11:30:00,
2013-02-03 04:35:00,24.1,15.4,23.38,WSW,248,1.1,1.1,69,0.00,,,0.00,WUHU216HW,2013-02-03 11:35:00,
2013-02-03 04:40:00,24.1,15.4,23.38,WSW,248,0.9,1.1,69,0.00,,,0.00,WUHU216HW,2013-02-03 11:40:00,
2013-02-03 04:45:00,24.1,15.4,23.38,WSW,248,1.3,1.8,69,0.00,,,0.00,WUHU216HW,2013-02-03 11:45:00,
2013-02-03 04:50:00,23.9,15.2,23.38,WSW,248,0.9,1.8,69,0.00,,,0.00,WUHU216HW,2013-02-03 11:50:00,
2013-02-03 04:55:00,23.9,14.9,23.38,WSW,248,0.7,1.1,68,0.00,,,0.00,WUHU216HW,2013-02-03 11:55:00,
2013-02-03 05:00:00,24.1,15.0,23.38,WSW,248,0.7,1.8,68,0.00,,,0.00,WUHU216HW,2013-02-03 12:00:00,
2013-02-03 05:05:00,24.1,15.4,23.38,WSW,248,1.1,1.8,69,0.00,,,0.00,WUHU216HW,2013-02-03 12:05:00,
2013-02-03 05:10:00,24.1,15.0,23.37,WSW,248,1.1,1.3,68,0.00,,,0.00,WUHU216HW,2013-02-03 12:10:00,
2013-02-03 05:15:00,24.1,15.4,23.37,WSW,248,0.9,1.3,69,0.00,,,0.00,WUHU216HW,2013-02-03 12:15:00,
2013-02-03 05:20:00,24.1,15.4,23.37,WSW,248,1.3,1.3,69,0.00,,,0.00,WUHU216HW,2013-02-03 12:20:00,
2013-02-03 05:25:00,23.9,15.2,23.37,WSW,248,1.1,1.3,69,0.00,,,0.00,WUHU216HW,2013-02-03 12:25:00,
2013-02-03 05:30:00,23.9,14.9,23.37,WSW,248,0.0,1.3,68,0.00,,,0.00,WUHU216HW,2013-02-03 12:30:00,
2013-02-03 05:36:00,23.9,14.9,23.37,WSW,248,0.0,1.6,68,0.00,,,0.00,WUHU216HW,2013-02-03 12:36:00,
2013-02-03 05:41:00,23.9,14.9,23.37,WSW,248,0.4,1.6,68,0.00,,,0.00,WUHU216HW,2013-02-03 12:41:00,
2013-02-03 05:46:00,23.9,15.2,23.37,WSW,248,0.7,1.6,69,0.00,,,0.00,WUHU216HW,2013-02-03 12:46:00,
2013-02-03 05:51:00,23.9,15.2,23.37,WSW,248,0.0,0.7,69,0.00,,,0.00,WUHU216HW,2013-02-03 12:51:00,
2013-02-03 05:57:00,24.1,15.4,23.37,WSW,248,0.9,0.9,69,0.00,,,0.00,WUHU216HW,2013-02-03 12:57:00,
2013-02-03 06:02:00,23.9,14.9,23.36,WSW,248,0.2,1.3,68,0.00,,,0.00,WUHU216HW,2013-02-03 13:02:00,
2013-02-03 06:07:00,23.9,14.9,23.36,WSW,248,0.0,1.3,68,0.00,,,0.00,WUHU216HW,2013-02-03 13:07:00,
2013-02-03 06:12:00,23.9,14.9,23.36,WSW,248,1.1,1.1,68,0.00,,,0.00,WUHU216HW,2013-02-03 13:12:00,
2013-02-03 06:17:00,23.9,15.2,23.35,WSW,248,0.4,1.1,69,0.00,,,0.00,WUHU216HW,2013-02-03 13:17:00,
2013-02-03 06:22:00,23.9,15.2,23.36,WSW,248,0.0,1.1,69,0.00,,,0.00,WUHU216HW,2013-02-03 13:22:00,
2013-02-03 06:28:00,23.9,15.2,23.35,WSW,248,0.0,0.4,69,0.00,,,0.00,WUHU216HW,2013-02-03 13:28:00,
2013-02-03 06:33:00,23.9,15.2,23.36,WSW,248,0.0,0.4,69,0.00,,,0.00,WUHU216HW,2013-02-03 13:33:00,
2013-02-03 06:38:00,23.8,14.7,23.36,WSW,248,0.2,0.4,68,0.00,,,0.00,WUHU216HW,2013-02-03 13:38:00,
2013-02-03 06:43:00,23.8,14.7,23.35,WSW,248,0.2,0.4,68,0.00,,,0.00,WUHU216HW,2013-02-03 13:43:00,
2013-02-03 06:50:00,23.6,14.9,23.35,WSW,248,0.0,0.4,69,0.00,,,0.00,WUHU216HW,2013-02-03 13:50:00,
2013-02-03 06:55:00,23.4,14.8,23.36,WSW,248,1.3,1.3,69,0.00,,,0.00,WUHU216HW,2013-02-03 13:55:00,
2013-02-03 07:01:00,23.4,14.8,23.35,WSW,248,1.3,1.3,69,0.00,,,0.00,WUHU216HW,2013-02-03 14:01:00,
2013-02-03 07:06:00,23.4,14.8,23.35,WSW,248,0.7,1.3,69,0.00,,,0.00,WUHU216HW,2013-02-03 14:06:00,
2013-02-03 07:11:00,23.4,14.8,23.35,WSW,248,0.2,1.3,69,0.00,,,0.00,WUHU216HW,2013-02-03 14:11:00,
2013-02-03 07:16:00,23.4,14.8,23.35,WSW,248,0.4,0.7,69,0.00,,,0.00,WUHU216HW,2013-02-03 14:16:00,
2013-02-03 07:22:00,23.4,14.8,23.35,WSW,248,0.2,0.7,69,0.00,,,0.00,WUHU216HW,2013-02-03 14:22:00,
2013-02-03 07:27:00,23.6,14.9,23.35,WSW,248,0.0,0.7,69,0.00,,,0.00,WUHU216HW,2013-02-03 14:27:00,
2013-02-03 07:32:00,23.6,14.9,23.35,WSW,248,0.0,0.0,69,0.00,,,0.00,WUHU216HW,2013-02-03 14:32:00,
2013-02-03 07:37:00,23.6,14.9,23.35,WSW,248,0.4,0.9,69,0.00,,,0.00,WUHU216HW,2013-02-03 14:37:00,
2013-02-03 07:42:00,23.6,14.6,23.35,WSW,248,0.0,0.9,68,0.00,,,0.00,WUHU216HW,2013-02-03 14:42:00,
2013-02-03 07:47:00,23.6,14.6,23.35,WSW,248,0.0,0.4,68,0.00,,,0.00,WUHU216HW,2013-02-03 14:47:00,
2013-02-03 07:53:00,23.8,15.0,23.35,WSW,248,0.4,0.9,69,0.00,,,0.00,WUHU216HW,2013-02-03 14:53:00,
2013-02-03 07:58:00,23.8,15.0,23.35,WSW,248,0.0,0.9,69,0.00,,,0.00,WUHU216HW,2013-02-03 14:58:00,
2013-02-03 08:03:00,23.8,15.0,23.35,WSW,248,0.0,0.9,69,0.00,,,0.00,WUHU216HW,2013-02-03 15:03:00,
2013-02-03 08:08:00,23.8,14.7,23.35,WSW,248,0.7,0.9,68,0.00,,,0.00,WUHU216HW,2013-02-03 15:08:00,
2013-02-03 08:13:00,23.8,14.7,23.35,WSW,248,0.4,0.9,68,0.00,,,0.00,WUHU216HW,2013-02-03 15:13:00,
2013-02-03 08:18:00,23.9,15.2,23.35,WSW,248,0.4,0.9,69,0.00,,,0.00,WUHU216HW,2013-02-03 15:18:00,
2013-02-03 08:23:00,24.1,15.4,23.35,WSW,248,0.0,0.9,69,0.00,,,0.00,WUHU216HW,2013-02-03 15:23:00,
2013-02-03 08:28:00,24.1,15.4,23.35,WSW,248,0.0,0.4,69,0.00,,,0.00,WUHU216HW,2013-02-03 15:28:00,
2013-02-03 08:34:00,24.1,15.4,23.35,WSW,248,0.0,0.0,69,0.00,,,0.00,WUHU216HW,2013-02-03 15:34:00,
2013-02-03 08:39:00,24.3,15.2,23.35,WSW,248,0.0,0.7,68,0.00,,,0.00,WUHU216HW,2013-02-03 15:39:00,
2013-02-03 08:44:00,24.3,15.6,23.35,WSW,248,0.0,0.7,69,0.00,,,0.00,WUHU216HW,2013-02-03 15:44:00,
2013-02-03 08:49:00,24.7,15.6,23.35,WSW,248,0.0,0.0,68,0.00,,,0.00,WUHU216HW,2013-02-03 15:49:00,
2013-02-03 08:55:00,24.8,16.0,23.35,WSW,248,0.0,0.0,69,0.00,,,0.00,WUHU216HW,2013-02-03 15:55:00,
2013-02-03 09:00:00,24.8,16.0,23.35,WSW,248,0.0,0.0,69,0.00,,,0.00,WUHU216HW,2013-02-03 16:00:00,
2013-02-03 09:05:00,25.0,16.2,23.35,WSW,248,0.0,0.0,69,0.00,,,0.00,WUHU216HW,2013-02-03 16:05:00,
2013-02-03 09:10:00,25.4,16.6,23.35,WSW,248,0.0,0.0,69,0.00,,,0.00,WUHU216HW,2013-02-03 16:10:00,
2013-02-03 09:15:00,25.4,16.6,23.35,WSW,248,0.0,0.0,69,0.00,,,0.00,WUHU216HW,2013-02-03 16:15:00,
2013-02-03 09:20:00,25.6,16.7,23.35,WSW,248,0.0,0.0,69,0.00,,,0.00,WUHU216HW,2013-02-03 16:20:00,
2013-02-03 09:25:00,25.7,16.9,23.35,WSW,248,0.0,0.0,69,0.00,,,0.00,WUHU216HW,2013-02-03 16:25:00,
2013-02-03 09:30:00,25.9,16.7,23.35,WSW,248,0.0,0.0,68,0.00,,,0.00,WUHU216HW,2013-02-03 16:30:00,
2013-02-03 09:35:00,26.1,16.9,23.35,WSW,248,0.0,0.0,68,0.00,,,0.00,WUHU216HW,2013-02-03 16:35:00,
2013-02-03 09:40:00,26.3,17.1,23.34,WSW,248,0.0,0.0,68,0.00,,,0.00,WUHU216HW,2013-02-03 16:40:00,
2013-02-03 09:45:00,26.6,17.5,23.34,WSW,248,0.0,0.0,68,0.00,,,0.00,WUHU216HW,2013-02-03 16:45:00,
2013-02-03 09:50:00,26.8,17.3,23.34,WSW,248,0.0,0.0,67,0.00,,,0.00,WUHU216HW,2013-02-03 16:50:00,
2013-02-03 09:56:00,27.0,17.5,23.34,WSW,248,0.0,0.0,67,0.00,,,0.00,WUHU216HW,2013-02-03 16:56:00,
2013-02-03 10:01:00,27.2,17.3,23.34,WSW,248,0.0,0.0,66,0.00,,,0.00,WUHU216HW,2013-02-03 17:01:00,
2013-02-03 10:06:00,27.5,17.6,23.34,East,90,0.4,1.8,66,0.00,,,0.00,WUHU216HW,2013-02-03 17:06:00,
2013-02-03 10:11:00,27.7,17.8,23.34,East,90,0.0,1.8,66,0.00,,,0.00,WUHU216HW,2013-02-03 17:11:00,
2013-02-03 10:16:00,27.9,17.6,23.34,East,90,0.2,1.1,65,0.00,,,0.00,WUHU216HW,2013-02-03 17:16:00,
2013-02-03 10:21:00,28.3,17.6,23.34,ENE,68,0.4,1.6,64,0.00,,,0.00,WUHU216HW,2013-02-03 17:21:00,
2013-02-03 10:26:00,28.4,17.5,23.34,ENE,68,0.7,1.6,63,0.00,,,0.00,WUHU216HW,2013-02-03 17:26:00,
2013-02-03 10:31:00,28.4,17.5,23.34,ENE,68,0.0,0.9,63,0.00,,,0.00,WUHU216HW,2013-02-03 17:31:00,
2013-02-03 10:36:00,28.4,17.5,23.34,ENE,68,0.7,0.7,63,0.00,,,0.00,WUHU216HW,2013-02-03 17:36:00,
2013-02-03 10:41:00,28.8,17.5,23.34,ENE,68,0.0,0.7,62,0.00,,,0.00,WUHU216HW,2013-02-03 17:41:00,
2013-02-03 10:46:00,29.0,17.6,23.34,ENE,68,0.2,1.1,62,0.00,,,0.00,WUHU216HW,2013-02-03 17:46:00,
2013-02-03 10:51:00,29.2,17.7,23.34,NW,315,0.0,1.1,62,0.00,,,0.00,WUHU216HW,2013-02-03 17:51:00,
2013-02-03 10:56:00,29.5,18.1,23.34,West,270,1.6,1.6,62,0.00,,,0.00,WUHU216HW,2013-02-03 17:56:00,
2013-02-03 11:01:00,29.9,17.6,23.34,West,270,1.6,1.6,60,0.00,,,0.00,WUHU216HW,2013-02-03 18:01:00,
2013-02-03 11:06:00,30.4,16.9,23.34,WNW,293,0.7,2.2,57,0.00,,,0.00,WUHU216HW,2013-02-03 18:06:00,
2013-02-03 11:11:00,31.0,17.5,23.34,WNW,293,1.1,2.5,57,0.00,,,0.00,WUHU216HW,2013-02-03 18:11:00,
2013-02-03 11:16:00,31.3,17.4,23.34,WNW,293,2.9,4.0,56,0.00,,,0.00,WUHU216HW,2013-02-03 18:16:00,
2013-02-03 11:21:00,31.7,17.3,23.34,WNW,293,1.8,4.0,55,0.00,,,0.00,WUHU216HW,2013-02-03 18:21:00,
2013-02-03 11:26:00,31.9,17.5,23.34,West,270,2.2,3.4,55,0.00,,,0.00,WUHU216HW,2013-02-03 18:26:00,
2013-02-03 11:31:00,32.0,17.2,23.34,WSW,248,1.1,3.4,54,0.00,,,0.00,WUHU216HW,2013-02-03 18:31:00,
2013-02-03 11:36:00,32.0,17.2,23.34,WNW,293,1.6,3.4,54,0.00,,,0.00,WUHU216HW,2013-02-03 18:36:00,
2013-02-03 11:42:00,32.0,17.2,23.34,WNW,293,3.8,3.8,54,0.00,,,0.00,WUHU216HW,2013-02-03 18:42:00,
2013-02-03 11:47:00,32.2,17.8,23.34,West,270,2.9,3.8,55,0.00,,,0.00,WUHU216HW,2013-02-03 18:47:00,
2013-02-03 11:52:00,32.4,17.6,23.34,WSW,248,1.3,4.0,54,0.00,,,0.00,WUHU216HW,2013-02-03 18:52:00,
2013-02-03 11:57:00,32.6,17.7,23.34,West,270,2.0,4.0,54,0.00,,,0.00,WUHU216HW,2013-02-03 18:57:00,
2013-02-03 12:02:00,32.8,17.8,23.34,WSW,248,3.1,4.0,54,0.00,,,0.00,WUHU216HW,2013-02-03 19:02:00,
2013-02-03 12:07:00,32.9,18.0,23.33,West,270,2.5,3.4,54,0.00,,,0.00,WUHU216HW,2013-02-03 19:07:00,
2013-02-03 12:12:00,33.1,18.2,23.33,WNW,293,2.0,3.1,54,0.00,,,0.00,WUHU216HW,2013-02-03 19:12:00,
2013-02-03 12:17:00,33.3,18.4,23.33,West,270,0.9,2.5,54,0.00,,,0.00,WUHU216HW,2013-02-03 19:17:00,
2013-02-03 12:22:00,33.5,18.6,23.33,WNW,293,2.5,2.5,54,0.00,,,0.00,WUHU216HW,2013-02-03 19:22:00,
2013-02-03 12:27:00,33.7,18.6,23.33,West,270,2.2,2.7,54,0.00,,,0.00,WUHU216HW,2013-02-03 19:27:00,
2013-02-03 12:32:00,33.8,18.4,23.33,West,270,1.8,2.9,53,0.00,,,0.00,WUHU216HW,2013-02-03 19:32:00,
2013-02-03 12:37:00,34.0,18.2,23.33,WNW,293,1.8,3.8,52,0.00,,,0.00,WUHU216HW,2013-02-03 19:37:00,
2013-02-03 12:42:00,34.2,18.7,23.32,SW,225,1.8,3.8,53,0.00,,,0.00,WUHU216HW,2013-02-03 19:42:00,
2013-02-03 12:47:00,34.4,18.9,23.33,SW,225,1.3,4.0,53,0.00,,,0.00,WUHU216HW,2013-02-03 19:47:00,
2013-02-03 12:52:00,34.6,18.3,23.32,WNW,293,3.4,4.0,51,0.00,,,0.00,WUHU216HW,2013-02-03 19:52:00,
2013-02-03 12:57:00,34.7,18.0,23.32,WNW,293,1.8,4.0,50,0.00,,,0.00,WUHU216HW,2013-02-03 19:57:00,
2013-02-03 13:02:00,34.9,18.2,23.32,SSW,203,3.6,4.0,50,0.00,,,0.00,WUHU216HW,2013-02-03 20:02:00,
2013-02-03 13:07:00,34.9,18.6,23.32,West,270,1.1,3.6,51,0.00,,,0.00,WUHU216HW,2013-02-03 20:07:00,
2013-02-03 13:13:00,35.1,18.4,23.32,West,270,1.3,4.9,50,0.00,,,0.00,WUHU216HW,2013-02-03 20:13:00,
2013-02-03 13:18:00,35.3,18.0,23.32,WSW,248,3.8,4.9,49,0.00,,,0.00,WUHU216HW,2013-02-03 20:18:00,
2013-02-03 13:23:00,35.5,18.7,23.32,WNW,293,4.0,4.7,50,0.00,,,0.00,WUHU216HW,2013-02-03 20:23:00,
2013-02-03 13:28:00,35.5,18.7,23.32,NW,315,1.1,4.7,50,0.00,,,0.00,WUHU216HW,2013-02-03 20:28:00,
2013-02-03 13:33:00,35.6,18.9,23.32,West,270,2.2,3.6,50,0.00,,,0.00,WUHU216HW,2013-02-03 20:33:00,
2013-02-03 13:38:00,35.6,19.4,23.32,NW,315,1.6,3.4,51,0.00,,,0.00,WUHU216HW,2013-02-03 20:38:00,
2013-02-03 13:43:00,35.8,19.1,23.32,WNW,293,4.0,4.0,50,0.00,,,0.00,WUHU216HW,2013-02-03 20:43:00,
2013-02-03 13:48:00,35.8,19.1,23.31,WNW,293,2.5,4.0,50,0.00,,,0.00,WUHU216HW,2013-02-03 20:48:00,
2013-02-03 13:53:00,35.8,18.0,23.30,West,270,1.8,4.0,48,0.00,,,0.00,WUHU216HW,2013-02-03 20:53:00,
2013-02-03 13:58:00,36.0,17.6,23.30,West,270,2.0,4.0,47,0.00,,,0.00,WUHU216HW,2013-02-03 20:58:00,
2013-02-03 14:03:00,35.8,18.0,23.30,WNW,293,1.1,3.8,48,0.00,,,0.00,WUHU216HW,2013-02-03 21:03:00,
2013-02-03 14:08:00,35.8,18.0,23.30,West,270,0.9,3.4,48,0.00,,,0.00,WUHU216HW,2013-02-03 21:08:00,
2013-02-03 14:13:00,35.8,17.5,23.30,WSW,248,2.9,2.9,47,0.00,,,0.00,WUHU216HW,2013-02-03 21:13:00,
2013-02-03 14:19:00,35.8,17.5,23.29,WSW,248,4.7,4.7,47,0.00,,,0.00,WUHU216HW,2013-02-03 21:19:00,
2013-02-03 14:24:00,36.0,17.1,23.29,WSW,248,6.0,6.0,46,0.00,,,0.00,WUHU216HW,2013-02-03 21:24:00,
2013-02-03 14:29:00,36.0,17.6,23.29,West,270,4.3,6.0,47,0.00,,,0.00,WUHU216HW,2013-02-03 21:29:00,
2013-02-03 14:34:00,36.0,18.2,23.29,WNW,293,1.6,4.7,48,0.00,,,0.00,WUHU216HW,2013-02-03 21:34:00,
2013-02-03 14:39:00,36.0,17.1,23.30,West,270,1.6,3.8,46,0.00,,,0.00,WUHU216HW,2013-02-03 21:39:00,
2013-02-03 14:44:00,36.0,14.5,23.30,West,270,4.9,4.9,41,0.00,,,0.00,WUHU216HW,2013-02-03 21:44:00,
2013-02-03 14:49:00,35.6,15.2,23.30,West,270,2.7,4.9,43,0.00,,,0.00,WUHU216HW,2013-02-03 21:49:00,
2013-02-03 14:54:00,35.6,15.8,23.30,WNW,293,2.0,4.7,44,0.00,,,0.00,WUHU216HW,2013-02-03 21:54:00,
2013-02-03 14:59:00,35.5,16.1,23.30,WSW,248,3.1,4.7,45,0.00,,,0.00,WUHU216HW,2013-02-03 21:59:00,
2013-02-03 15:04:00,35.5,16.7,23.30,West,270,2.0,3.4,46,0.00,,,0.00,WUHU216HW,2013-02-03 22:04:00,
2013-02-03 15:09:00,35.3,17.0,23.30,SW,225,1.8,4.0,47,0.00,,,0.00,WUHU216HW,2013-02-03 22:09:00,
2013-02-03 15:14:00,35.3,17.5,23.30,SW,225,4.7,4.7,48,0.00,,,0.00,WUHU216HW,2013-02-03 22:14:00,
2013-02-03 15:19:00,35.1,17.4,23.29,West,270,1.8,6.3,48,0.00,,,0.00,WUHU216HW,2013-02-03 22:19:00,
2013-02-03 15:24:00,35.1,17.4,23.30,WSW,248,2.5,6.3,48,0.00,,,0.00,WUHU216HW,2013-02-03 22:24:00,
2013-02-03 15:29:00,34.9,16.7,23.29,West,270,3.6,3.6,47,0.00,,,0.00,WUHU216HW,2013-02-03 22:29:00,
2013-02-03 15:34:00,34.9,17.2,23.30,WNW,293,3.8,3.8,48,0.00,,,0.00,WUHU216HW,2013-02-03 22:34:00,
2013-02-03 15:39:00,34.7,15.0,23.30,WNW,293,4.0,4.3,44,0.00,,,0.00,WUHU216HW,2013-02-03 22:39:00,
2013-02-03 15:44:00,34.6,15.8,23.30,WSW,248,4.5,4.5,46,0.00,,,0.00,WUHU216HW,2013-02-03 22:44:00,
2013-02-03 15:49:00,34.4,15.6,23.30,WSW,248,2.9,4.7,46,0.00,,,0.00,WUHU216HW,2013-02-03 22:49:00,
2013-02-03 15:55:00,34.2,15.9,23.30,West,270,1.3,4.7,47,0.00,,,0.00,WUHU216HW,2013-02-03 22:55:00,
2013-02-03 16:00:00,34.0,16.3,23.30,WNW,293,2.7,2.9,48,0.00,,,0.00,WUHU216HW,2013-02-03 23:00:00,
2013-02-03 16:05:00,33.8,15.6,23.29,West,270,4.0,4.0,47,0.00,,,0.00,WUHU216HW,2013-02-03 23:05:00,
2013-02-03 16:10:00,33.5,15.3,23.29,West,270,4.0,4.7,47,0.00,,,0.00,WUHU216HW,2013-02-03 23:10:00,
2013-02-03 16:15:00,33.5,15.3,23.29,West,270,4.0,4.7,47,0.00,,,0.00,WUHU216HW,2013-02-03 23:15:00,
2013-02-03 16:20:00,33.1,15.5,23.29,WNW,293,2.7,4.7,48,0.00,,,0.00,WUHU216HW,2013-02-03 23:20:00,
2013-02-03 16:25:00,32.8,15.1,23.29,West,270,5.1,5.1,48,0.00,,,0.00,WUHU216HW,2013-02-03 23:25:00,
2013-02-03 16:30:00,32.4,15.3,23.29,WNW,293,2.5,5.4,49,0.00,,,0.00,WUHU216HW,2013-02-03 23:30:00,
2013-02-03 16:35:00,32.2,15.1,23.29,West,270,1.8,5.4,49,0.00,,,0.00,WUHU216HW,2013-02-03 23:35:00,
2013-02-03 16:40:00,32.0,14.9,23.29,SW,225,4.9,5.4,49,0.00,,,0.00,WUHU216HW,2013-02-03 23:40:00,
2013-02-03 16:45:00,32.0,14.9,23.29,WSW,248,4.5,5.6,49,0.00,,,0.00,WUHU216HW,2013-02-03 23:45:00,
2013-02-03 16:50:00,31.9,15.3,23.29,West,270,2.9,5.6,50,0.00,,,0.00,WUHU216HW,2013-02-03 23:50:00,
2013-02-03 16:55:00,31.7,15.1,23.30,SSW,203,3.4,4.9,50,0.00,,,0.00,WUHU216HW,2013-02-03 23:55:00,
2013-02-03 17:00:00,31.5,15.0,23.30,WNW,293,1.6,3.6,50,0.00,,,0.00,WUHU216HW,2013-02-04 00:00:00,
2013-02-03 17:05:00,31.5,15.0,23.29,SW,225,3.4,4.3,50,0.00,,,0.00,WUHU216HW,2013-02-04 00:05:00,
2013-02-03 17:11:00,31.3,15.3,23.29,SW,225,2.5,4.3,51,0.00,,,0.00,WUHU216HW,2013-02-04 00:11:00,
2013-02-03 17:16:00,31.3,15.3,23.29,NW,315,2.7,4.0,51,0.00,,,0.00,WUHU216HW,2013-02-04 00:16:00,
2013-02-03 17:21:00,31.3,14.9,23.29,West,270,3.8,4.0,50,0.00,,,0.00,WUHU216HW,2013-02-04 00:21:00,
2013-02-03 17:26:00,31.1,15.1,23.29,WNW,293,3.1,4.0,51,0.00,,,0.00,WUHU216HW,2013-02-04 00:26:00,
2013-02-03 17:32:00,31.1,15.1,23.29,West,270,4.9,4.9,51,0.00,,,0.00,WUHU216HW,2013-02-04 00:32:00,
2013-02-03 17:37:00,31.1,15.5,23.29,West,270,2.7,4.9,52,0.00,,,0.00,WUHU216HW,2013-02-04 00:37:00,
2013-02-03 17:43:00,31.0,15.4,23.29,West,270,2.7,4.3,52,0.00,,,0.00,WUHU216HW,2013-02-04 00:43:00,
2013-02-03 17:48:00,31.0,15.4,23.29,West,270,2.0,3.8,52,0.00,,,0.00,WUHU216HW,2013-02-04 00:48:00,
2013-02-03 17:53:00,30.8,15.2,23.29,WNW,293,3.1,4.7,52,0.00,,,0.00,WUHU216HW,2013-02-04 00:53:00,
2013-02-03 17:58:00,30.6,15.0,23.30,West,270,2.7,4.7,52,0.00,,,0.00,WUHU216HW,2013-02-04 00:58:00,
2013-02-03 18:03:00,30.4,14.9,23.30,WNW,293,2.2,3.8,52,0.00,,,0.00,WUHU216HW,2013-02-04 01:03:00,
2013-02-03 18:08:00,30.2,14.7,23.30,WNW,293,1.8,2.5,52,0.00,,,0.00,WUHU216HW,2013-02-04 01:08:00,
2013-02-03 18:13:00,30.1,14.9,23.30,WSW,248,1.1,2.0,53,0.00,,,0.00,WUHU216HW,2013-02-04 01:13:00,
2013-02-03 18:18:00,29.9,15.2,23.31,WNW,293,0.4,2.0,54,0.00,,,0.00,WUHU216HW,2013-02-04 01:18:00,
2013-02-03 18:24:00,29.7,15.0,23.31,West,270,1.1,3.4,54,0.00,,,0.00,WUHU216HW,2013-02-04 01:24:00,
2013-02-03 18:29:00,29.5,14.9,23.31,NW,315,0.4,2.7,54,0.00,,,0.00,WUHU216HW,2013-02-04 01:29:00,
2013-02-03 18:34:00,29.5,14.9,23.32,West,270,5.1,5.1,54,0.00,,,0.00,WUHU216HW,2013-02-04 01:34:00,
2013-02-03 18:39:00,29.5,14.9,23.32,West,270,3.4,5.1,54,0.00,,,0.00,WUHU216HW,2013-02-04 01:39:00,
2013-02-03 18:44:00,29.7,14.6,23.31,SW,225,2.5,4.5,53,0.00,,,0.00,WUHU216HW,2013-02-04 01:44:00,
2013-02-03 18:49:00,29.5,14.9,23.32,SW,225,1.8,4.5,54,0.00,,,0.00,WUHU216HW,2013-02-04 01:49:00,
2013-02-03 18:55:00,29.5,14.9,23.32,WNW,293,2.5,3.4,54,0.00,,,0.00,WUHU216HW,2013-02-04 01:55:00,
2013-02-03 19:00:00,29.3,14.7,23.32,SSW,203,2.7,3.4,54,0.00,,,0.00,WUHU216HW,2013-02-04 02:00:00,
2013-02-03 19:05:00,29.3,14.7,23.31,SW,225,2.5,5.4,54,0.00,,,0.00,WUHU216HW,2013-02-04 02:05:00,
2013-02-03 19:10:00,29.3,14.7,23.31,WSW,248,3.4,5.4,54,0.00,,,0.00,WUHU216HW,2013-02-04 02:10:00,
2013-02-03 19:15:00,29.3,14.7,23.30,WNW,293,4.0,4.0,54,0.00,,,0.00,WUHU216HW,2013-02-04 02:15:00,
2013-02-03 19:20:00,29.3,15.1,23.30,West,270,0.9,4.0,55,0.00,,,0.00,WUHU216HW,2013-02-04 02:20:00,
2013-02-03 19:25:00,29.2,14.9,23.30,WSW,248,3.6,3.6,55,0.00,,,0.00,WUHU216HW,2013-02-04 02:25:00,
2013-02-03 19:30:00,28.8,15.0,23.31,West,270,2.2,3.6,56,0.00,,,0.00,WUHU216HW,2013-02-04 02:30:00,
2013-02-03 19:35:00,28.4,14.8,23.31,WNW,293,1.8,3.1,56,0.00,,,0.00,WUHU216HW,2013-02-04 02:35:00,
2013-02-03 19:40:00,28.4,14.8,23.31,West,270,0.9,3.1,56,0.00,,,0.00,WUHU216HW,2013-02-04 02:40:00,
2013-02-03 19:45:00,28.4,15.1,23.31,WSW,248,1.6,1.6,57,0.00,,,0.00,WUHU216HW,2013-02-04 02:45:00,
2013-02-03 19:50:00,28.4,15.1,23.31,WNW,293,0.0,1.6,57,0.00,,,0.00,WUHU216HW,2013-02-04 02:50:00,
2013-02-03 19:56:00,28.3,14.9,23.31,WSW,248,1.1,1.8,57,0.00,,,0.00,WUHU216HW,2013-02-04 02:56:00,
2013-02-03 20:01:00,27.9,15.0,23.31,West,270,1.1,1.8,58,0.00,,,0.00,WUHU216HW,2013-02-04 03:01:00,
2013-02-03 20:06:00,27.7,14.9,23.31,West,270,0.4,1.1,58,0.00,,,0.00,WUHU216HW,2013-02-04 03:06:00,
2013-02-03 20:11:00,27.7,14.9,23.31,West,270,1.3,1.3,58,0.00,,,0.00,WUHU216HW,2013-02-04 03:11:00,
2013-02-03 20:16:00,27.7,14.9,23.31,WNW,293,1.8,2.7,58,0.00,,,0.00,WUHU216HW,2013-02-04 03:16:00,
2013-02-03 20:21:00,27.7,14.9,23.31,West,270,1.8,2.7,58,0.00,,,0.00,WUHU216HW,2013-02-04 03:21:00,
2013-02-03 20:26:00,27.7,14.9,23.31,WNW,293,1.6,2.9,58,0.00,,,0.00,WUHU216HW,2013-02-04 03:26:00,
2013-02-03 20:31:00,27.7,14.9,23.31,West,270,0.9,2.9,58,0.00,,,0.00,WUHU216HW,2013-02-04 03:31:00,
2013-02-03 20:36:00,27.7,14.9,23.31,West,270,0.9,2.2,58,0.00,,,0.00,WUHU216HW,2013-02-04 03:36:00,
2013-02-03 20:41:00,27.5,15.0,23.31,WNW,293,1.1,2.2,59,0.00,,,0.00,WUHU216HW,2013-02-04 03:41:00,
2013-02-03 20:46:00,27.5,15.0,23.31,WSW,248,0.4,1.8,59,0.00,,,0.00,WUHU216HW,2013-02-04 03:46:00,
2013-02-03 20:51:00,27.4,14.9,23.31,WSW,248,0.0,1.8,59,0.00,,,0.00,WUHU216HW,2013-02-04 03:51:00,
2013-02-03 20:56:00,27.2,14.7,23.31,SW,225,0.0,1.3,59,0.00,,,0.00,WUHU216HW,2013-02-04 03:56:00,
2013-02-03 21:01:00,27.2,15.1,23.31,WSW,248,0.9,1.3,60,0.00,,,0.00,WUHU216HW,2013-02-04 04:01:00,
2013-02-03 21:06:00,27.0,14.9,23.31,WSW,248,1.1,1.1,60,0.00,,,0.00,WUHU216HW,2013-02-04 04:06:00,
2013-02-03 21:11:00,27.0,15.3,23.31,SSW,203,1.1,2.0,61,0.00,,,0.00,WUHU216HW,2013-02-04 04:11:00,
2013-02-03 21:17:00,26.8,15.1,23.31,WSW,248,0.2,2.0,61,0.00,,,0.00,WUHU216HW,2013-02-04 04:17:00,
2013-02-03 21:22:00,26.8,15.5,23.32,WNW,293,1.3,1.3,62,0.00,,,0.00,WUHU216HW,2013-02-04 04:22:00,
2013-02-03 21:27:00,26.8,15.5,23.32,WSW,248,1.1,1.8,62,0.00,,,0.00,WUHU216HW,2013-02-04 04:27:00,
2013-02-03 21:32:00,27.0,15.7,23.32,West,270,0.9,2.5,62,0.00,,,0.00,WUHU216HW,2013-02-04 04:32:00,
2013-02-03 21:37:00,27.0,15.7,23.32,West,270,1.3,2.5,62,0.00,,,0.00,WUHU216HW,2013-02-04 04:37:00,
2013-02-03 21:42:00,27.0,15.7,23.32,West,270,1.1,2.0,62,0.00,,,0.00,WUHU216HW,2013-02-04 04:42:00,
2013-02-03 21:47:00,27.0,15.7,23.32,WNW,293,1.1,2.5,62,0.00,,,0.00,WUHU216HW,2013-02-04 04:47:00,
2013-02-03 21:52:00,27.0,15.7,23.31,WNW,293,1.3,2.7,62,0.00,,,0.00,WUHU216HW,2013-02-04 04:52:00,
2013-02-03 21:57:00,27.2,15.8,23.32,WSW,248,1.1,2.7,62,0.00,,,0.00,WUHU216HW,2013-02-04 04:57:00,
2013-02-03 22:00:00,27.0,15.7,23.32,WSW,248,1.8,2.5,62,0.00,,,0.00,WUHU216HW,2013-02-04 05:00:00,
2013-02-03 22:02:00,27.0,15.7,23.32,WSW,248,1.8,2.5,62,0.00,,,0.00,WUHU216HW,2013-02-04 05:02:00,
2013-02-03 22:03:00,27.0,15.7,23.32,WNW,293,1.1,1.8,62,0.00,,,0.00,WUHU216HW,2013-02-04 05:03:00,
2013-02-03 22:08:00,27.2,15.8,23.32,West,270,1.8,1.8,62,0.00,,,0.00,WUHU216HW,2013-02-04 05:08:00,
2013-02-03 22:13:00,27.2,15.8,23.32,WNW,293,1.8,1.8,62,0.00,,,0.00,WUHU216HW,2013-02-04 05:13:00,
2013-02-03 22:18:00,27.2,15.8,23.32,SW,225,1.1,1.8,62,0.00,,,0.00,WUHU216HW,2013-02-04 05:18:00,
2013-02-03 22:23:00,27.0,15.7,23.32,WSW,248,0.4,2.2,62,0.00,,,0.00,WUHU216HW,2013-02-04 05:23:00,
2013-02-03 22:28:00,26.6,15.3,23.33,SW,225,1.8,2.2,62,0.00,,,0.00,WUHU216HW,2013-02-04 05:28:00,
2013-02-03 22:33:00,26.1,15.1,23.33,SW,225,1.6,1.8,63,0.00,,,0.00,WUHU216HW,2013-02-04 05:33:00,
2013-02-03 22:38:00,25.7,14.9,23.33,SW,225,0.4,1.8,63,0.00,,,0.00,WUHU216HW,2013-02-04 05:38:00,
2013-02-03 22:43:00,25.4,14.9,23.33,SW,225,0.9,1.8,64,0.00,,,0.00,WUHU216HW,2013-02-04 05:43:00,
2013-02-03 22:48:00,25.2,14.7,23.33,West,270,0.2,1.6,64,0.00,,,0.00,WUHU216HW,2013-02-04 05:48:00,
2013-02-03 22:54:00,25.2,14.7,23.33,West,270,0.0,0.9,64,0.00,,,0.00,WUHU216HW,2013-02-04 05:54:00,
2013-02-03 22:59:00,25.2,15.0,23.33,SW,225,1.8,1.8,65,0.00,,,0.00,WUHU216HW,2013-02-04 05:59:00,
2013-02-03 23:04:00,25.0,14.9,23.33,WSW,248,1.8,1.8,65,0.00,,,0.00,WUHU216HW,2013-02-04 06:04:00,
2013-02-03 23:09:00,24.8,14.7,23.33,WSW,248,1.6,2.0,65,0.00,,,0.00,WUHU216HW,2013-02-04 06:09:00,
2013-02-03 23:14:00,24.8,14.7,23.33,West,270,1.3,2.0,65,0.00,,,0.00,WUHU216HW,2013-02-04 06:14:00,
2013-02-03 23:19:00,25.0,14.9,23.33,WSW,248,1.1,2.0,65,0.00,,,0.00,WUHU216HW,2013-02-04 06:19:00,
2013-02-03 23:24:00,25.0,14.5,23.33,West,270,1.1,1.8,64,0.00,,,0.00,WUHU216HW,2013-02-04 06:24:00,
2013-02-03 23:29:00,24.8,14.3,23.33,SW,225,1.1,1.3,64,0.00,,,0.00,WUHU216HW,2013-02-04 06:29:00,
2013-02-03 23:34:00,24.7,14.1,23.33,WSW,248,1.1,1.3,64,0.00,,,0.00,WUHU216HW,2013-02-04 06:34:00,
2013-02-03 23:39:00,24.5,14.0,23.33,WSW,248,1.3,1.8,64,0.00,,,0.00,WUHU216HW,2013-02-04 06:39:00,
2013-02-03 23:44:00,24.5,14.0,23.32,SW,225,2.0,2.2,64,0.00,,,0.00,WUHU216HW,2013-02-04 06:44:00,
2013-02-03 23:49:00,24.1,13.7,23.32,WSW,248,2.0,2.5,64,0.00,,,0.00,WUHU216HW,2013-02-04 06:49:00,
2013-02-03 23:54:00,24.1,13.7,23.32,WSW,248,1.6,2.5,64,0.00,,,0.00,WUHU216HW,2013-02-04 06:54:00,